Time;durP1;ratioP1;P1;durP2;ratioP2;P2;SDS_P1;SDS_P2;PMS_P1;PMS_P2;Temp;Humidity;BMP_temperature;BMP_pressure;BME280_temperature;BME280_humidity;BME280_pressure;Samples;Min_cycle;Max_cycle;Signal;HPM_P1;HPM_P2
2023/03/22 00:01:18;;;;;;;20.88;13.20;;;;;;;8.66;78.70;100994.00;7396706;19;20077;-60
2023/03/22 00:03:44;;;;;;;21.45;12.07;;;;;;;8.63;78.68;100986.25;7394916;19;20016;-60
2023/03/22 00:06:10;;;;;;;19.30;12.98;;;;;;;8.58;78.83;100989.25;7394859;19;19999;-60
2023/03/22 00:08:36;;;;;;;20.77;12.77;;;;;;;8.55;78.94;100984.16;7396867;19;20032;-60
2023/03/22 00:11:02;;;;;;;18.10;12.15;;;;;;;8.53;78.87;100987.84;7395905;19;20466;-61
2023/03/22 00:13:27;;;;;;;21.05;12.80;;;;;;;8.52;78.75;100976.41;7394347;19;19999;-60
2023/03/22 00:15:54;;;;;;;19.63;13.00;;;;;;;8.48;78.90;100975.78;7395063;19;20147;-60
2023/03/22 00:18:20;;;;;;;19.20;12.68;;;;;;;8.44;79.03;100974.31;7394484;19;19995;-59
2023/03/22 00:20:49;;;;;;;19.30;12.63;;;;;;;8.41;79.31;100971.88;7396406;19;20003;-59
2023/03/22 00:23:15;;;;;;;19.58;12.32;;;;;;;8.34;79.60;100967.97;7391683;19;20009;-59
2023/03/22 00:25:43;;;;;;;19.27;12.32;;;;;;;8.36;79.38;100966.06;7394716;19;20007;-60
2023/03/22 00:28:09;;;;;;;17.95;12.88;;;;;;;8.33;79.37;100958.31;7395283;19;20007;-59
2023/03/22 00:30:34;;;;;;;19.95;13.23;;;;;;;8.37;79.55;100958.97;7396491;19;20003;-60
2023/03/22 00:33:00;;;;;;;21.50;13.10;;;;;;;8.35;79.26;100953.78;7391697;19;19998;-60
2023/03/22 00:35:25;;;;;;;20.35;12.70;;;;;;;8.34;79.21;100951.22;7394657;19;20003;-61
2023/03/22 00:37:51;;;;;;;20.90;13.15;;;;;;;8.30;79.35;100958.53;7391152;19;20002;-61
2023/03/22 00:40:16;;;;;;;18.92;12.45;;;;;;;8.36;79.18;100954.63;7394538;19;19999;-60
2023/03/22 00:42:42;;;;;;;20.73;12.57;;;;;;;8.34;79.38;100946.81;7391251;19;19998;-60
2023/03/22 00:45:10;;;;;;;18.75;12.23;;;;;;;8.32;79.44;100954.00;7391887;19;20002;-61
2023/03/22 00:47:35;;;;;;;19.85;12.90;;;;;;;8.32;79.45;100943.41;7393785;19;20018;-61
2023/03/22 00:50:01;;;;;;;17.58;12.95;;;;;;;8.34;79.18;100940.63;7395451;19;20439;-61
2023/03/22 00:52:28;;;;;;;19.42;12.35;;;;;;;8.38;79.01;100939.47;7394510;19;19999;-60
2023/03/22 00:54:54;;;;;;;21.38;12.93;;;;;;;8.40;78.94;100934.94;7391968;19;19999;-60
2023/03/22 00:57:20;;;;;;;21.38;12.80;;;;;;;8.32;79.43;100931.97;7394641;19;20002;-60
2023/03/22 00:59:46;;;;;;;17.42;12.35;;;;;;;8.34;79.55;100930.03;7393995;19;19994;-59
2023/03/22 01:02:14;;;;;;;19.67;12.38;;;;;;;8.39;79.15;100931.44;7394386;19;19995;-60
2023/03/22 01:04:45;;;;;;;16.55;12.00;;;;;;;8.40;79.07;100929.63;7393990;19;19998;-60
2023/03/22 01:07:16;;;;;;;18.73;12.65;;;;;;;8.44;78.95;100921.34;7393624;19;20066;-60
2023/03/22 01:09:45;;;;;;;21.77;13.07;;;;;;;8.45;78.66;100925.72;7393646;19;19998;-61
2023/03/22 01:12:12;;;;;;;21.02;12.88;;;;;;;8.35;79.26;100921.16;7393551;19;20003;-61
2023/03/22 01:14:38;;;;;;;18.77;12.50;;;;;;;8.36;79.30;100920.22;7393024;19;20010;-61
2023/03/22 01:17:06;;;;;;;19.70;12.30;;;;;;;8.36;79.34;100926.34;7393832;19;20018;-61
2023/03/22 01:19:32;;;;;;;22.17;13.98;;;;;;;8.39;79.37;100923.50;7393779;19;20355;-59
2023/03/22 01:21:58;;;;;;;20.75;12.65;;;;;;;8.46;79.00;100915.97;7392001;19;19994;-60
2023/03/22 01:24:24;;;;;;;17.95;12.88;;;;;;;8.50;79.00;100909.50;7390178;19;20338;-61
2023/03/22 01:26:49;;;;;;;19.85;12.98;;;;;;;8.51;78.85;100899.75;7391740;19;19998;-60
2023/03/22 01:29:15;;;;;;;18.35;12.38;;;;;;;8.43;79.46;100901.13;7394143;19;19995;-60
2023/03/22 01:31:42;;;;;;;20.65;12.73;;;;;;;8.40;79.28;100895.22;7392764;19;19995;-60
2023/03/22 01:34:08;;;;;;;19.55;12.85;;;;;;;8.38;79.70;100894.47;7393697;19;20005;-60
2023/03/22 01:36:33;;;;;;;22.77;13.48;;;;;;;8.38;79.48;100887.41;7392599;19;20382;-61
2023/03/22 01:38:59;;;;;;;20.23;13.48;;;;;;;8.40;79.47;100893.41;7393471;19;20006;-60
2023/03/22 01:41:24;;;;;;;18.10;12.60;;;;;;;8.42;79.56;100886.22;7393529;19;20066;-60
2023/03/22 01:44:20;;;;;;;20.83;12.88;;;;;;;8.41;79.78;100879.22;7390231;19;20007;-59
2023/03/22 01:46:47;;;;;;;22.88;13.05;;;;;;;8.44;79.52;100872.84;7390695;19;20070;-60
2023/03/22 01:49:23;;;;;;;18.73;12.98;;;;;;;8.45;79.36;100875.41;7392244;19;20006;-60
2023/03/22 01:51:51;;;;;;;18.85;13.02;;;;;;;8.49;79.29;100874.25;7391547;19;20017;-61
2023/03/22 01:54:34;;;;;;;18.80;12.65;;;;;;;8.54;79.11;100875.72;7392741;19;20010;-61
2023/03/22 01:57:00;;;;;;;20.40;12.75;;;;;;;8.53;79.06;100876.66;7392471;19;20006;-60
2023/03/22 01:59:26;;;;;;;21.48;13.07;;;;;;;8.52;79.39;100874.97;7392124;19;20019;-60
2023/03/22 02:01:52;;;;;;;18.35;12.30;;;;;;;8.58;79.22;100869.25;7391596;19;20030;-60
2023/03/22 02:04:24;;;;;;;19.23;12.40;;;;;;;8.60;78.93;100862.00;7391181;19;20007;-60
2023/03/22 02:06:54;;;;;;;19.95;13.05;;;;;;;8.57;79.02;100862.22;7392010;19;20003;-61
2023/03/22 02:09:20;;;;;;;21.98;13.45;;;;;;;8.54;79.14;100859.81;7391987;19;20107;-61
2023/03/22 02:12:15;;;;;;;18.25;11.85;;;;;;;8.59;79.18;100849.72;7392324;19;20006;-61
2023/03/22 02:15:06;;;;;;;19.05;12.48;;;;;;;8.56;79.19;100855.25;7388728;19;20002;-61
2023/03/22 02:17:38;;;;;;;21.25;12.00;;;;;;;8.53;79.34;100853.69;7390405;19;20025;-60
2023/03/22 02:20:41;;;;;;;17.67;12.60;;;;;;;8.62;79.20;100853.00;7390716;19;20478;-60
2023/03/22 02:23:28;;;;;;;21.90;12.63;;;;;;;8.62;79.26;100860.13;7391015;19;19999;-61
2023/03/22 02:26:38;;;;;;;18.27;12.02;;;;;;;8.61;78.92;100850.47;7390730;19;20014;-60
2023/03/22 02:29:13;;;;;;;17.95;12.93;;;;;;;8.59;78.94;100855.03;7389716;19;20097;-61
2023/03/22 02:32:01;;;;;;;21.17;12.00;;;;;;;8.67;78.80;100852.66;7391844;19;20009;-60
2023/03/22 02:35:07;;;;;;;19.05;12.35;;;;;;;8.59;78.97;100847.09;7389034;19;20015;-60
2023/03/22 02:37:57;;;;;;;20.00;12.05;;;;;;;8.63;78.88;100853.84;7391267;19;20372;-62
2023/03/22 02:40:38;;;;;;;19.08;12.10;;;;;;;8.68;78.65;100851.72;7391207;19;20003;-61
2023/03/22 02:43:22;;;;;;;20.77;11.52;;;;;;;8.76;78.35;100844.06;7390183;19;20007;-61
2023/03/22 02:45:57;;;;;;;;;;;;;;;8.73;77.94;100841.66;7389041;19;20011;-61
2023/03/22 02:48:30;;;;;;;18.08;10.95;;;;;;;8.74;78.31;100848.63;7391057;19;19974;-62
2023/03/22 02:51:10;;;;;;;18.83;11.05;;;;;;;8.74;78.08;100838.03;7390378;19;20010;-60
2023/03/22 02:53:45;;;;;;;17.15;10.10;;;;;;;8.76;78.17;100845.84;7389223;19;20013;-61
2023/03/22 02:56:20;;;;;;;18.48;11.05;;;;;;;8.79;77.69;100840.34;7390235;19;20450;-61
2023/03/22 02:58:52;;;;;;;16.73;9.55;;;;;;;8.78;77.73;100831.53;7390985;19;20324;-60
2023/03/22 03:01:36;;;;;;;16.65;10.93;;;;;;;8.79;77.53;100833.22;7397298;19;19998;-60
2023/03/22 03:04:07;;;;;;;17.83;10.23;;;;;;;8.83;77.54;100829.41;7398457;19;20054;-61
2023/03/22 03:06:44;;;;;;;17.35;9.88;;;;;;;8.84;77.32;100828.47;7395979;19;19999;-60
2023/03/22 03:09:16;;;;;;;17.77;10.38;;;;;;;8.84;77.42;100825.81;7398844;19;20011;-61
2023/03/22 03:11:45;;;;;;;16.90;9.73;;;;;;;8.82;77.67;100832.16;7397840;19;20009;-61
2023/03/22 03:14:28;;;;;;;18.20;10.40;;;;;;;8.80;77.73;100829.66;7396722;19;20006;-61
2023/03/22 03:17:06;;;;;;;15.27;9.35;;;;;;;8.82;77.66;100821.56;7395973;19;20030;-60
2023/03/22 03:19:44;;;;;;;17.40;9.75;;;;;;;8.84;77.39;100824.97;7398759;19;20005;-61
2023/03/22 03:22:28;;;;;;;17.42;9.82;;;;;;;8.85;77.36;100827.50;7396020;19;20036;-61
2023/03/22 03:25:17;;;;;;;14.43;9.90;;;;;;;8.80;77.68;100821.69;7397192;19;19987;-61
2023/03/22 03:28:10;;;;;;;16.23;9.55;;;;;;;8.79;77.46;100824.44;7393152;19;20250;-60
2023/03/22 03:30:52;;;;;;;16.00;9.32;;;;;;;8.82;77.63;100817.13;7395061;19;20491;-60
2023/03/22 03:33:20;;;;;;;16.88;9.68;;;;;;;8.86;77.44;100828.34;7393650;19;20006;-60
2023/03/22 03:36:02;;;;;;;15.82;9.32;;;;;;;8.89;77.21;100826.31;7392062;19;20379;-60
2023/03/22 03:38:33;;;;;;;14.30;8.80;;;;;;;8.87;77.42;100824.72;7396526;19;19999;-61
2023/03/22 03:41:06;;;;;;;17.00;9.30;;;;;;;8.83;77.47;100829.41;7394580;19;20002;-61
2023/03/22 03:43:33;;;;;;;16.50;9.23;;;;;;;8.82;77.46;100826.88;7392156;19;19999;-60
2023/03/22 03:45:59;;;;;;;17.65;9.90;;;;;;;8.84;77.38;100822.31;7395613;19;20066;-61
2023/03/22 03:48:30;;;;;;;17.95;9.57;;;;;;;8.83;77.46;100824.09;7396356;19;20008;-60
2023/03/22 03:51:00;;;;;;;16.42;9.02;;;;;;;8.85;77.42;100819.53;7397415;19;19991;-61
2023/03/22 03:53:26;;;;;;;15.50;9.18;;;;;;;8.83;77.35;100825.91;7394378;19;20006;-62
2023/03/22 03:55:52;;;;;;;16.92;9.55;;;;;;;8.84;77.37;100822.31;7393306;19;20009;-61
2023/03/22 03:58:18;;;;;;;17.92;9.52;;;;;;;8.81;77.51;100826.03;7397004;19;20061;-61
2023/03/22 04:00:45;;;;;;;16.77;9.23;;;;;;;8.82;77.23;100811.81;7396754;19;20414;-60
2023/03/22 04:03:11;;;;;;;16.48;8.88;;;;;;;8.84;77.10;100807.25;7395693;19;19995;-60
2023/03/22 04:05:37;;;;;;;17.05;9.15;;;;;;;8.87;77.22;100814.97;7395899;19;20019;-60
2023/03/22 04:08:03;;;;;;;18.30;8.88;;;;;;;8.78;77.25;100813.00;7394694;19;20315;-61
2023/03/22 04:10:28;;;;;;;16.90;8.77;;;;;;;8.79;77.16;100813.84;7395954;19;19998;-61
2023/03/22 04:12:54;;;;;;;16.02;9.32;;;;;;;8.82;77.31;100808.31;7394428;19;19998;-61
2023/03/22 04:15:19;;;;;;;18.45;9.30;;;;;;;8.84;76.92;100807.25;7394831;19;19999;-60
2023/03/22 04:17:45;;;;;;;16.48;9.15;;;;;;;8.87;76.92;100807.00;7397828;19;19998;-60
2023/03/22 04:20:12;;;;;;;16.80;9.40;;;;;;;8.85;77.12;100808.94;7395527;19;20002;-60
2023/03/22 04:22:56;;;;;;;15.50;8.90;;;;;;;8.85;76.65;100803.66;7392374;19;20009;-60
2023/03/22 04:25:22;;;;;;;16.63;8.73;;;;;;;8.87;76.80;100799.06;7395331;19;19991;-61
2023/03/22 04:27:50;;;;;;;14.05;8.63;;;;;;;8.90;76.48;100798.84;7392351;19;20002;-60
2023/03/22 04:30:19;;;;;;;15.35;8.80;;;;;;;8.88;76.81;100800.78;7395489;19;20114;-61
2023/03/22 04:32:46;;;;;;;17.38;8.77;;;;;;;8.88;76.85;100799.94;7393838;19;20320;-60
2023/03/22 04:35:12;;;;;;;15.90;8.68;;;;;;;8.91;76.64;100803.22;7395164;19;20005;-60
2023/03/22 04:37:38;;;;;;;18.35;8.98;;;;;;;8.82;76.84;100795.91;7394847;19;20470;-61
2023/03/22 04:40:07;;;;;;;13.88;8.30;;;;;;;8.79;76.90;100796.16;7395009;19;19995;-60
2023/03/22 04:42:33;;;;;;;18.48;9.50;;;;;;;8.80;77.12;100786.38;7393542;19;20022;-60
2023/03/22 04:44:59;;;;;;;14.73;9.02;;;;;;;8.82;76.86;100790.63;7393105;19;20003;-59
2023/03/22 04:47:25;;;;;;;14.52;8.55;;;;;;;8.81;76.82;100791.59;7392701;19;20462;-60
2023/03/22 04:49:50;;;;;;;16.50;8.77;;;;;;;8.76;77.05;100785.81;7395312;19;20006;-59
2023/03/22 04:52:16;;;;;;;16.52;8.68;;;;;;;8.77;76.75;100782.19;7393736;19;20002;-60
2023/03/22 04:54:42;;;;;;;16.35;8.60;;;;;;;8.75;76.94;100781.44;7394491;19;20130;-60
2023/03/22 04:57:07;;;;;;;14.98;8.45;;;;;;;8.75;76.95;100778.78;7394706;19;20062;-60
2023/03/22 04:59:34;;;;;;;15.70;8.50;;;;;;;8.78;76.57;100783.88;7393823;19;19999;-60
2023/03/22 05:01:59;;;;;;;15.85;8.48;;;;;;;8.78;76.57;100781.22;7393387;19;20002;-61
2023/03/22 05:04:26;;;;;;;17.85;8.50;;;;;;;8.82;76.62;100777.38;7393662;19;20410;-60
2023/03/22 05:06:52;;;;;;;17.15;8.50;;;;;;;8.85;76.32;100777.16;7393781;19;20417;-60
2023/03/22 05:09:17;;;;;;;16.25;8.27;;;;;;;8.78;76.52;100781.22;7393692;19;20003;-60
2023/03/22 05:11:43;;;;;;;13.88;7.40;;;;;;;8.76;76.29;100775.19;7393922;19;20062;-61
2023/03/22 05:14:09;;;;;;;14.68;7.70;;;;;;;8.80;76.34;100784.63;7393693;19;20309;-60
2023/03/22 05:16:35;;;;;;;15.57;7.97;;;;;;;8.80;76.58;100770.50;7392898;19;20009;-61
2023/03/22 05:19:01;;;;;;;15.43;8.43;;;;;;;8.82;76.38;100773.88;7393422;19;20002;-61
2023/03/22 05:21:28;;;;;;;14.85;8.32;;;;;;;8.81;76.11;100766.91;7391865;19;20587;-61
2023/03/22 05:23:57;;;;;;;14.75;7.70;;;;;;;8.79;76.32;100767.00;7391407;19;20009;-61
2023/03/22 05:26:26;;;;;;;13.32;8.02;;;;;;;8.75;76.16;100762.91;7392227;19;20003;-61
2023/03/22 05:28:52;;;;;;;16.90;7.68;;;;;;;8.79;76.36;100761.72;7393678;19;20010;-61
2023/03/22 05:31:20;;;;;;;13.85;6.88;;;;;;;8.83;76.15;100757.03;7397943;19;20011;-61
2023/03/22 05:33:49;;;;;;;16.10;7.35;;;;;;;8.85;75.61;100760.41;7391267;19;20013;-61
2023/03/22 05:36:15;;;;;;;14.50;7.78;;;;;;;8.88;75.76;100755.75;7391994;19;20459;-61
2023/03/22 05:38:41;;;;;;;14.63;7.53;;;;;;;8.85;75.81;100744.53;7393923;19;20025;-60
2023/03/22 05:41:07;;;;;;;14.80;7.53;;;;;;;8.92;75.31;100748.41;7392807;19;20007;-61
2023/03/22 05:43:33;;;;;;;13.38;7.38;;;;;;;8.91;75.45;100744.03;7391281;19;20006;-61
2023/03/22 05:45:58;;;;;;;13.20;7.22;;;;;;;8.96;75.36;100748.06;7389676;19;20069;-61
2023/03/22 05:48:24;;;;;;;15.55;7.53;;;;;;;8.95;75.28;100751.69;7392601;19;20022;-60
2023/03/22 05:50:49;;;;;;;16.08;8.00;;;;;;;8.99;75.37;100741.69;7390598;19;19995;-60
2023/03/22 05:53:15;;;;;;;15.98;7.80;;;;;;;8.97;75.40;100741.78;7391833;19;19995;-62
2023/03/22 05:55:40;;;;;;;16.02;7.82;;;;;;;8.96;75.25;100739.25;7389855;19;20077;-61
2023/03/22 05:58:07;;;;;;;17.20;7.90;;;;;;;8.99;75.20;100747.00;7391374;19;20007;-61
2023/03/22 06:00:32;;;;;;;14.75;8.35;;;;;;;9.00;75.23;100742.53;7392433;19;20009;-59
2023/03/22 06:03:02;;;;;;;15.65;7.43;;;;;;;9.01;75.42;100744.22;7390585;19;19995;-59
2023/03/22 06:05:30;;;;;;;15.63;8.13;;;;;;;9.00;75.49;100738.06;7391762;19;20003;-59
2023/03/22 06:07:56;;;;;;;15.63;8.35;;;;;;;9.03;75.15;100732.53;7388810;19;20002;-60
2023/03/22 06:10:23;;;;;;;15.10;8.45;;;;;;;9.02;75.04;100740.59;7391899;19;20003;-61
2023/03/22 06:12:49;;;;;;;16.58;8.55;;;;;;;9.02;75.49;100738.78;7391238;19;20013;-60
2023/03/22 06:15:15;;;;;;;15.35;8.60;;;;;;;9.04;75.46;100722.78;7392417;19;20014;-59
2023/03/22 06:17:41;;;;;;;20.55;9.27;;;;;;;9.11;75.20;100731.97;7392469;19;20002;-60
2023/03/22 06:20:10;;;;;;;15.95;9.27;;;;;;;9.15;74.97;100725.47;7392092;19;20007;-60
2023/03/22 06:22:37;;;;;;;15.80;9.10;;;;;;;9.17;75.04;100729.66;7391779;19;20006;-60
2023/03/22 06:25:03;;;;;;;15.13;9.75;;;;;;;9.19;75.22;100721.63;7392175;19;20030;-60
2023/03/22 06:27:29;;;;;;;17.98;9.80;;;;;;;9.18;75.15;100727.84;7390291;19;20021;-60
2023/03/22 06:29:54;;;;;;;19.35;10.32;;;;;;;9.18;75.42;100730.50;7392148;19;19999;-60
2023/03/22 06:32:22;;;;;;;16.08;10.32;;;;;;;9.25;75.43;100726.41;7390373;19;20005;-61
2023/03/22 06:34:51;;;;;;;20.13;10.80;;;;;;;9.26;75.36;100722.84;7388179;19;20006;-60
2023/03/22 06:37:16;;;;;;;16.92;10.50;;;;;;;9.33;75.00;100726.69;7391007;19;20006;-60
2023/03/22 06:39:42;;;;;;;18.52;10.63;;;;;;;9.35;75.03;100722.09;7391966;19;20016;-60
2023/03/22 06:42:08;;;;;;;20.00;11.10;;;;;;;9.41;74.86;100719.00;7386382;19;20014;-60
2023/03/22 06:44:33;;;;;;;17.95;10.68;;;;;;;9.42;75.09;100718.03;7389251;19;20009;-61
2023/03/22 06:46:59;;;;;;;19.73;10.63;;;;;;;9.39;75.10;100715.59;7388477;19;19999;-61
2023/03/22 06:49:25;;;;;;;19.88;11.43;;;;;;;9.39;75.29;100715.59;7391552;19;20078;-60
2023/03/22 06:51:51;;;;;;;20.10;10.68;;;;;;;9.40;75.38;100708.50;7390497;19;20007;-60
2023/03/22 06:54:16;;;;;;;18.98;11.27;;;;;;;9.42;75.38;100709.22;7390534;19;20025;-61
2023/03/22 06:56:42;;;;;;;18.75;10.82;;;;;;;9.45;75.22;100715.13;7390023;19;20011;-61
2023/03/22 06:59:07;;;;;;;17.65;10.35;;;;;;;9.53;74.84;100706.59;7390935;19;20400;-61
2023/03/22 07:01:33;;;;;;;16.17;10.32;;;;;;;9.63;74.60;100704.03;7390106;19;20002;-61
2023/03/22 07:03:59;;;;;;;16.33;9.98;;;;;;;9.66;74.38;100706.44;7389715;19;20100;-60
2023/03/22 07:06:24;;;;;;;18.27;10.40;;;;;;;9.67;74.29;100702.81;7390034;19;20003;-61
2023/03/22 07:08:50;;;;;;;18.02;10.10;;;;;;;9.67;74.34;100714.28;7369304;19;20372;-61
2023/03/22 07:11:34;;;;;;;20.08;9.65;;;;;;;9.64;74.61;100708.41;7382871;19;20082;-62
2023/03/22 07:14:00;;;;;;;17.30;9.45;;;;;;;9.63;74.44;100704.88;7393695;19;19999;-62
2023/03/22 07:16:25;;;;;;;17.75;9.38;;;;;;;9.66;74.56;100699.34;7389426;19;19995;-62
2023/03/22 07:18:51;;;;;;;18.60;9.95;;;;;;;9.66;74.65;100706.44;7390702;19;20459;-62
2023/03/22 07:21:17;;;;;;;15.88;9.05;;;;;;;9.69;74.54;100698.25;7390443;19;20003;-62
2023/03/22 07:23:46;;;;;;;17.90;9.88;;;;;;;9.78;73.99;100697.50;7388718;19;19995;-61
2023/03/22 07:26:12;;;;;;;16.40;9.93;;;;;;;9.82;73.98;100692.81;7387783;19;19991;-63
2023/03/22 07:28:40;;;;;;;17.10;9.35;;;;;;;9.84;74.14;100690.91;7389963;19;19995;-62
2023/03/22 07:31:10;;;;;;;17.70;9.82;;;;;;;9.86;73.83;100681.84;7390228;19;20002;-62
2023/03/22 07:33:37;;;;;;;13.95;8.27;;;;;;;9.95;73.74;100682.94;7388307;19;19998;-62
2023/03/22 07:36:03;;;;;;;14.93;8.73;;;;;;;9.92;73.39;100677.88;7389280;19;20006;-62
2023/03/22 07:38:29;;;;;;;15.18;9.32;;;;;;;9.84;73.74;100677.66;7390052;19;20010;-62
2023/03/22 07:40:54;;;;;;;15.13;9.23;;;;;;;9.85;73.75;100666.91;7389680;19;19995;-61
2023/03/22 07:43:21;;;;;;;17.10;8.85;;;;;;;9.91;73.44;100670.88;7387999;19;20029;-61
2023/03/22 07:45:50;;;;;;;16.50;8.40;;;;;;;9.94;73.53;100667.97;7389162;19;20014;-62
2023/03/22 07:48:17;;;;;;;15.07;8.88;;;;;;;9.87;73.85;100664.97;7395763;19;20455;-62
2023/03/22 07:50:43;;;;;;;14.85;8.65;;;;;;;9.92;73.41;100670.75;7396080;19;20459;-62
2023/03/22 07:53:09;;;;;;;16.40;8.68;;;;;;;9.89;73.73;100659.53;7395099;19;20019;-62
2023/03/22 07:55:35;;;;;;;14.57;8.13;;;;;;;10.02;73.26;100672.66;7396844;19;20014;-61
2023/03/22 07:58:01;;;;;;;14.80;8.20;;;;;;;10.15;72.79;100650.31;7397346;19;20007;-62
2023/03/22 08:00:27;;;;;;;15.80;9.20;;;;;;;10.16;72.67;100657.28;7394911;19;20003;-62
2023/03/22 08:02:53;;;;;;;15.88;8.40;;;;;;;10.23;72.32;100647.03;7395601;19;20042;-61
2023/03/22 08:05:18;;;;;;;13.57;8.23;;;;;;;10.33;72.25;100655.09;7394228;19;20026;-62
2023/03/22 08:07:44;;;;;;;15.23;8.35;;;;;;;10.41;71.82;100656.13;7393461;19;20067;-61
2023/03/22 08:10:10;;;;;;;16.20;8.75;;;;;;;10.47;71.47;100652.09;7396346;19;20014;-61
2023/03/22 08:12:35;;;;;;;13.50;7.45;;;;;;;10.53;71.46;100656.06;7394448;19;20007;-61
2023/03/22 08:15:01;;;;;;;15.38;7.68;;;;;;;10.62;71.09;100655.28;7394250;19;20054;-61
2023/03/22 08:17:29;;;;;;;14.50;7.45;;;;;;;10.57;71.69;100657.50;7396196;19;19999;-62
2023/03/22 08:19:55;;;;;;;15.70;7.72;;;;;;;10.63;71.05;100638.38;7395862;19;20332;-62
2023/03/22 08:22:24;;;;;;;15.98;8.15;;;;;;;10.55;71.28;100643.50;7394061;19;20007;-62
2023/03/22 08:24:53;;;;;;;13.30;6.55;;;;;;;10.55;70.83;100635.53;7394338;19;20355;-62
2023/03/22 08:27:19;;;;;;;15.75;7.15;;;;;;;10.71;70.89;100624.47;7393794;19;20010;-62
2023/03/22 08:29:46;;;;;;;14.63;7.20;;;;;;;10.72;70.70;100628.81;7395968;19;20012;-61
2023/03/22 08:32:12;;;;;;;14.25;6.97;;;;;;;10.78;70.46;100631.78;7394033;19;20469;-61
2023/03/22 08:34:40;;;;;;;14.15;6.55;;;;;;;10.63;70.86;100633.06;7394560;19;19999;-62
2023/03/22 08:37:06;;;;;;;13.70;6.60;;;;;;;10.59;71.14;100635.16;7395147;19;20013;-62
2023/03/22 08:39:33;;;;;;;13.60;6.25;;;;;;;10.68;70.84;100642.34;7394589;19;19998;-62
2023/03/22 08:41:59;;;;;;;13.18;6.20;;;;;;;10.83;69.56;100632.22;7394475;19;20066;-61
2023/03/22 08:44:24;;;;;;;14.85;6.18;;;;;;;11.06;69.27;100637.41;7393747;19;20393;-61
2023/03/22 08:46:50;;;;;;;13.27;6.38;;;;;;;11.12;69.08;100620.91;7394057;19;19995;-60
2023/03/22 08:49:16;;;;;;;15.95;6.22;;;;;;;11.09;69.26;100623.84;7393098;19;20003;-62
2023/03/22 08:51:41;;;;;;;12.50;5.68;;;;;;;11.06;69.06;100630.25;7394623;19;20005;-62
2023/03/22 08:54:07;;;;;;;14.10;6.13;;;;;;;11.11;68.76;100624.53;7393438;19;20502;-62
2023/03/22 08:56:36;;;;;;;14.13;5.72;;;;;;;11.25;68.38;100624.22;7393087;19;19995;-63
2023/03/22 08:59:06;;;;;;;12.27;5.80;;;;;;;11.25;68.23;100626.06;7392818;19;19999;-62
2023/03/22 09:01:33;;;;;;;13.48;5.47;;;;;;;11.49;67.48;100617.72;7394356;19;20036;-62
2023/03/22 09:03:58;;;;;;;16.15;5.53;;;;;;;11.66;66.95;100609.09;7393900;19;20058;-61
2023/03/22 09:06:25;;;;;;;13.27;5.43;;;;;;;11.63;66.87;100612.88;7392921;19;20007;-62
2023/03/22 09:08:51;;;;;;;11.30;5.10;;;;;;;11.50;66.64;100609.59;7394272;19;19995;-62
2023/03/22 09:11:18;;;;;;;12.98;5.25;;;;;;;11.47;67.18;100604.56;7392493;19;19994;-62
2023/03/22 09:13:44;;;;;;;12.73;5.40;;;;;;;11.33;67.53;100619.06;7392210;19;20026;-62
2023/03/22 09:16:10;;;;;;;12.98;5.15;;;;;;;11.21;67.11;100611.31;7393518;19;20324;-62
2023/03/22 09:18:37;;;;;;;12.45;4.90;;;;;;;11.11;67.11;100596.13;7393696;19;19995;-62
2023/03/22 09:21:04;;;;;;;13.25;4.22;;;;;;;11.10;66.42;100602.44;7392964;19;20002;-62
2023/03/22 09:23:31;;;;;;;12.73;4.78;;;;;;;11.14;66.51;100595.88;7392813;19;20007;-62
2023/03/22 09:26:05;;;;;;;9.40;4.03;;;;;;;11.21;65.42;100601.50;7390745;19;19999;-63
2023/03/22 09:28:31;;;;;;;10.57;4.13;;;;;;;11.33;65.53;100597.81;7394165;19;20011;-62
2023/03/22 09:31:05;;;;;;;10.15;4.45;;;;;;;11.50;64.95;100587.47;7393634;19;20710;-62
2023/03/22 09:33:31;;;;;;;9.38;4.20;;;;;;;11.61;65.29;100579.38;7391359;19;19998;-61
2023/03/22 09:35:56;;;;;;;13.60;4.13;;;;;;;11.69;64.53;100584.84;7392131;19;20333;-61
2023/03/22 09:38:24;;;;;;;13.77;4.07;;;;;;;11.67;64.32;100586.84;7392788;19;19991;-62
2023/03/22 09:41:04;;;;;;;12.27;4.03;;;;;;;11.85;63.10;100584.31;7393186;19;20030;-61
2023/03/22 09:43:41;;;;;;;12.00;4.13;;;;;;;11.59;64.49;100592.00;7389930;19;20036;-63
2023/03/22 09:46:13;;;;;;;12.15;3.88;;;;;;;11.59;63.81;100592.84;7389927;19;20025;-61
2023/03/22 09:48:41;;;;;;;12.80;3.28;;;;;;;11.55;63.68;100583.44;7391294;19;20110;-61
2023/03/22 09:51:28;;;;;;;12.15;3.67;;;;;;;11.57;62.00;100600.09;7393623;19;19995;-62
2023/03/22 09:53:54;;;;;;;10.60;3.20;;;;;;;11.62;63.10;100608.53;7392763;19;20322;-60
2023/03/22 09:56:26;;;;;;;9.20;2.80;;;;;;;11.68;61.90;100595.66;7390288;19;20514;-62
2023/03/22 09:59:12;;;;;;;8.38;2.88;;;;;;;11.52;61.80;100606.81;7391879;19;20006;-62
2023/03/22 10:01:46;;;;;;;10.18;2.78;;;;;;;11.61;62.40;100611.31;7392073;19;20066;-62
2023/03/22 10:04:25;;;;;;;8.88;3.42;;;;;;;11.44;62.13;100611.97;7392499;19;20030;-62
2023/03/22 10:07:05;;;;;;;9.43;3.13;;;;;;;11.40;62.53;100604.25;7391852;19;19995;-62
2023/03/22 10:09:47;;;;;;;11.18;3.08;;;;;;;11.49;62.25;100612.41;7391456;19;20002;-62
2023/03/22 10:12:30;;;;;;;10.45;3.33;;;;;;;11.61;62.45;100601.50;7391584;19;19999;-62
2023/03/22 10:15:08;;;;;;;8.95;3.20;;;;;;;11.92;61.52;100621.88;7389297;19;20110;-63
2023/03/22 10:17:35;;;;;;;8.65;2.80;;;;;;;12.03;61.18;100603.13;7392108;19;20006;-62
2023/03/22 10:20:08;;;;;;;8.75;2.60;;;;;;;11.96;60.84;100602.00;7391484;19;20010;-62
2023/03/22 10:22:44;;;;;;;7.93;2.60;;;;;;;12.07;60.79;100599.19;7391094;19;20021;-62
2023/03/22 10:25:15;;;;;;;10.75;3.05;;;;;;;11.99;61.17;100605.22;7388776;19;20087;-62
2023/03/22 10:27:41;;;;;;;12.50;3.75;;;;;;;12.02;61.34;100602.28;7390479;19;20003;-61
2023/03/22 10:30:24;;;;;;;10.85;3.17;;;;;;;12.16;59.95;100617.03;7390859;19;20001;-61
2023/03/22 10:32:49;;;;;;;13.32;3.72;;;;;;;11.99;60.35;100597.22;7388860;19;20002;-63
2023/03/22 10:35:16;;;;;;;9.90;3.10;;;;;;;12.17;60.67;100591.22;7390736;19;20023;-62
2023/03/22 10:37:47;;;;;;;9.65;2.80;;;;;;;12.14;60.39;100598.50;7392241;19;19999;-63
2023/03/22 10:40:27;;;;;;;9.55;2.67;;;;;;;12.13;59.46;100602.16;7389907;19;20459;-62
2023/03/22 10:43:02;;;;;;;10.38;2.78;;;;;;;12.03;60.80;100617.28;7390086;19;20002;-63
2023/03/22 10:45:32;;;;;;;9.57;1.92;;;;;;;12.04;60.18;100600.34;7389422;19;20002;-63
2023/03/22 10:48:24;;;;;;;8.07;2.05;;;;;;;11.99;59.98;100615.88;7390666;19;20002;-62
2023/03/22 10:50:50;;;;;;;13.80;2.85;;;;;;;11.93;61.02;100605.78;7390989;19;20012;-63
2023/03/22 10:53:21;;;;;;;9.50;2.33;;;;;;;11.99;60.49;100612.38;7389910;19;20092;-62
2023/03/22 10:55:47;;;;;;;9.98;2.17;;;;;;;12.02;59.61;100612.94;7390489;19;20014;-65
2023/03/22 10:58:18;;;;;;;6.60;1.80;;;;;;;11.97;59.54;100614.34;7391242;19;20003;-62
2023/03/22 11:00:52;;;;;;;11.30;2.13;;;;;;;12.04;59.33;100612.78;7391537;19;20009;-62
2023/03/22 11:03:39;;;;;;;9.63;2.42;;;;;;;12.12;59.18;100602.31;7388883;19;20074;-62
2023/03/22 11:06:18;;;;;;;8.23;1.85;;;;;;;12.13;57.32;100596.81;7392286;19;20451;-63
2023/03/22 11:08:48;;;;;;;7.70;2.20;;;;;;;12.07;58.32;100605.34;7393690;19;20003;-63
2023/03/22 11:11:24;;;;;;;9.52;2.25;;;;;;;12.08;58.09;100577.78;7391671;19;20006;-63
2023/03/22 11:13:54;;;;;;;7.95;2.40;;;;;;;12.11;58.98;100577.47;7390565;19;20002;-62
2023/03/22 11:16:19;;;;;;;8.65;2.10;;;;;;;12.10;59.12;100574.97;7389801;19;20036;-61
2023/03/22 11:18:46;;;;;;;9.77;2.17;;;;;;;12.12;58.61;100589.00;7392777;19;20352;-62
2023/03/22 11:21:15;;;;;;;10.95;2.63;;;;;;;12.10;58.53;100583.78;7394843;19;20182;-62
2023/03/22 11:23:49;;;;;;;5.95;2.15;;;;;;;12.11;58.38;100582.78;7397838;19;19991;-62
2023/03/22 11:26:25;;;;;;;13.15;2.97;;;;;;;12.13;57.45;100569.34;7399838;19;20023;-62
2023/03/22 11:28:51;;;;;;;8.07;2.42;;;;;;;12.24;57.92;100582.53;7399623;19;20015;-61
2023/03/22 11:31:19;;;;;;;7.45;2.13;;;;;;;12.26;57.49;100579.72;7399542;19;20005;-62
2023/03/22 11:34:06;;;;;;;10.82;2.35;;;;;;;12.37;57.07;100592.88;7397282;19;20007;-60